Key West, FL

1:16 AM EDT on August 30, 2015 (GMT -0400)
Big Coppitt Key Gulfside | | Change Station
CLOSE
Current Station
Personal Weather Station
Location: Key West, FL
Elevation: 31 ft
Nearby Weather Stations

Elev 31 ft 24.60 °N, 81.67 °W | Updated 6 minutes ago

Mostly Cloudy
Mostly Cloudy
81.7 °F
Feels Like 91 °F
N
9.4
Wind Variable Wind from East

Today
High -- | Low -- °F
--% Chance of Precip.
Yesterday
High -- | Low -- °F
Precip. -- in
7:06 AM 7:47 PM
Full, 100% visible
Pressure 29.92 in
Visibility 10.0 miles
Clouds Clear
Heat Index 91 °F
Dew Point 80 °F
Humidity 93%
Rainfall 0.00 in
Snow Depth Not available.
UV 0 out of 12
Pollen 5.40 out of 12
Air Quality Not available.
Flu Activity Not available.
SPECI KNQX 300507Z AUTO 04013G18KT 10SM TS CLR 28/26 A2992 RMK AO2 TSB01 T02780256 PNO $
Pressure 29.92 in
Visibility 10.0 miles
Clouds Clear
Heat Index 91 °F
Dew Point 80 °F
Humidity 93%
Rainfall 0.00 in
Snow Depth Not available.
UV 0 out of 12
Pollen 5.40 out of 12
Air Quality Not available.
Flu Activity Not available.
SPECI KNQX 300507Z AUTO 04013G18KT 10SM TS CLR 28/26 A2992 RMK AO2 TSB01 T02780256 PNO $
Nowcast | as of 12:58 am EDT on August 30, 2015

Through 200 am...scattered showers with embedded thunderstorms will track west to northwestward at 15 to 20 mph across the Keys and surrounding waters. Most of this activity will be located on the near through offshore waters surrounding the middle and Upper Keys...and continuing into the outer Florida Straits off of the Marquesas Keys. The stronger activity will produce wind gusts near 35 mph...blinding downpours...and a few lightning strikes. Any island location along the island chain may receive a round or two of gusty winds...and torrential downpours.

×

10-Day Weather Forecast

×

Almanac

Astronomy

Aug. 30, 2015 Rise Set
Actual Time
Civil Twilight
Nautical Twilight
Astronomical Twilight
Moon
Length of Visible Light
Length of Day
Tomorrow will be .
, % of the Moon is Illuminated

Today's Extremes

State Highs State Lows

Community

WunderPhotos

Upload Photos

1,850,895 photos uploaded!

WunderBlogs® & News

Nearby

Air Quality

  Air Quality AQ Index Pollutant
Not available.

Snow Depth

Station Depth Elevation

Earthquake Activity

City Distance Mag. Time & Date
Minimum magnitude displayed is 2.5.

Coastal Water Temperatures

Place Temperature

Stations

Nearby Weather Stations

Station Location Temp. Windchill Dew Point Humidity Wind Precip. Elev Updated Type